createdAt,value
2018-06-14T00:00:03.745Z,119
2018-06-14T00:05:03.762Z,119
2018-06-14T00:10:03.753Z,119
2018-06-14T00:15:03.750Z,119
2018-06-14T00:20:03.777Z,119
2018-06-14T00:25:03.752Z,119
2018-06-14T00:30:03.761Z,119
2018-06-14T00:35:03.774Z,119
2018-06-14T00:40:03.884Z,119
2018-06-14T00:45:03.770Z,119
2018-06-14T00:50:03.786Z,119
2018-06-14T00:55:03.776Z,119
2018-06-14T01:00:03.779Z,119
2018-06-14T01:05:03.790Z,119
2018-06-14T01:10:03.786Z,119
2018-06-14T01:15:03.784Z,119
2018-06-14T01:20:03.799Z,119
2018-06-14T01:25:03.791Z,119
2018-06-14T01:30:03.798Z,119
2018-06-14T01:35:03.816Z,119
2018-06-14T01:40:03.794Z,119
2018-06-14T01:45:03.801Z,119
2018-06-14T01:50:03.814Z,119
2018-06-14T01:55:03.807Z,119
2018-06-14T02:00:03.811Z,119
2018-06-14T02:05:03.809Z,119
2018-06-14T02:10:03.820Z,119
2018-06-14T02:15:03.816Z,119
2018-06-14T02:20:03.826Z,119
2018-06-14T02:25:03.845Z,119
2018-06-14T02:30:03.837Z,119
2018-06-14T02:35:03.836Z,119
2018-06-14T02:40:03.846Z,119
2018-06-14T02:45:03.837Z,119
2018-06-14T02:50:03.833Z,119
2018-06-14T02:55:03.842Z,119
2018-06-14T03:00:03.845Z,119
2018-06-14T03:05:03.843Z,119
2018-06-14T03:10:03.858Z,119
2018-06-14T03:15:03.846Z,119
2018-06-14T03:20:03.860Z,119
2018-06-14T03:25:03.856Z,119
2018-06-14T03:30:03.880Z,119
2018-06-14T03:35:03.863Z,119
2018-06-14T03:40:03.858Z,119
2018-06-14T03:45:03.871Z,119
2018-06-14T03:50:03.872Z,119
2018-06-14T03:55:03.869Z,119
2018-06-14T04:00:03.875Z,119
2018-06-14T04:05:03.886Z,119
2018-06-14T04:10:03.991Z,119
2018-06-14T04:15:03.888Z,119
2018-06-14T04:20:03.894Z,119
2018-06-14T04:25:03.885Z,119
2018-06-14T04:30:03.889Z,119
2018-06-14T04:35:03.898Z,119
2018-06-14T04:40:03.907Z,119
2018-06-14T04:45:03.899Z,119
2018-06-14T04:50:03.898Z,119
2018-06-14T04:55:03.926Z,119
2018-06-14T05:00:03.911Z,119
2018-06-14T05:05:03.907Z,119
2018-06-14T05:10:03.931Z,119
2018-06-14T05:15:03.915Z,119
2018-06-14T05:20:03.925Z,119
2018-06-14T05:25:03.918Z,119
2018-06-14T05:30:03.938Z,119
2018-06-14T05:35:03.939Z,119
2018-06-14T05:40:03.933Z,119
2018-06-14T05:45:03.948Z,119
2018-06-14T05:50:03.935Z,119
2018-06-14T05:55:03.940Z,119
2018-06-14T06:00:03.946Z,119
2018-06-14T06:05:03.965Z,119
2018-06-14T06:10:03.957Z,119
2018-06-14T06:15:03.959Z,119
2018-06-14T06:20:03.959Z,119
2018-06-14T06:25:03.962Z,119
2018-06-14T06:30:03.970Z,119
2018-06-14T06:35:03.959Z,119
2018-06-14T06:40:03.961Z,119
2018-06-14T06:45:04.103Z,119
2018-06-14T06:50:03.973Z,119
2018-06-14T06:55:03.978Z,119
2018-06-14T07:00:03.986Z,119
2018-06-14T07:05:03.978Z,119
2018-06-14T07:10:03.984Z,119
2018-06-14T07:15:03.993Z,119
2018-06-14T07:20:03.986Z,119
2018-06-14T07:25:03.984Z,119
2018-06-14T07:30:03.995Z,119
2018-06-14T07:35:03.990Z,119
2018-06-14T07:40:03.989Z,119
2018-06-14T07:45:04.012Z,119
2018-06-14T07:50:04.001Z,119
2018-06-14T07:55:04.005Z,119
2018-06-14T08:00:04.196Z,119
2018-06-14T08:05:04.022Z,119
2018-06-14T08:10:04.012Z,119
2018-06-14T08:15:04.020Z,119
2018-06-14T08:20:04.031Z,119
2018-06-14T08:25:04.019Z,119
2018-06-14T08:30:04.023Z,119
2018-06-14T08:35:04.271Z,119
2018-06-14T08:40:04.033Z,119
2018-06-14T08:45:04.030Z,110.47
2018-06-14T08:50:04.038Z,112.51
2018-06-14T08:55:04.034Z,110.18
2018-06-14T09:00:04.039Z,107.48
2018-06-14T09:05:04.053Z,112.08
2018-06-14T09:10:04.049Z,101.78
2018-06-14T09:15:04.049Z,101.75
2018-06-14T09:20:04.053Z,88.01
2018-06-14T09:25:04.048Z,76.87
2018-06-14T09:30:04.052Z,84.37
2018-06-14T09:35:04.064Z,78.87
2018-06-14T09:40:04.051Z,86.99
2018-06-14T09:45:04.064Z,85.26
2018-06-14T09:50:04.066Z,89.31
2018-06-14T09:55:04.071Z,87.98
2018-06-14T10:00:04.068Z,85.63
2018-06-14T10:05:04.070Z,76.14
2018-06-14T10:10:04.081Z,79.58
2018-06-14T10:15:04.074Z,76.89
2018-06-14T10:20:04.079Z,64.53
2018-06-14T10:25:04.084Z,58.81
2018-06-14T10:30:04.078Z,64.39
2018-06-14T10:35:04.093Z,62.67
2018-06-14T10:40:04.097Z,61.07
2018-06-14T10:45:04.090Z,60.56
2018-06-14T10:50:04.091Z,60.23
2018-06-14T10:55:04.100Z,54.63
2018-06-14T11:00:04.096Z,49.48
2018-06-14T11:05:04.105Z,45.7
2018-06-14T11:10:04.123Z,42.18
2018-06-14T11:15:04.108Z,43.49
2018-06-14T11:20:04.119Z,43.54
2018-06-14T11:25:04.121Z,44.02
2018-06-14T11:30:04.228Z,43.82
2018-06-14T11:35:04.122Z,47.83
2018-06-14T11:40:04.152Z,41.37
2018-06-14T11:45:04.125Z,34.54
2018-06-14T11:50:04.118Z,31.03
2018-06-14T11:55:04.128Z,39.31
2018-06-14T12:00:04.195Z,42.13
2018-06-14T12:05:04.131Z,38.68
2018-06-14T12:10:04.137Z,34.71
2018-06-14T12:15:04.223Z,33.86
2018-06-14T12:20:04.145Z,31.45
2018-06-14T12:25:04.147Z,26.28
2018-06-14T12:30:04.156Z,27.69
2018-06-14T12:35:04.146Z,32.18
2018-06-14T12:40:04.149Z,30.74
2018-06-14T12:45:04.179Z,32.01
2018-06-14T12:50:04.157Z,27.92
2018-06-14T12:55:04.160Z,29.22
2018-06-14T13:00:04.163Z,30.51
2018-06-14T13:05:04.176Z,27.76
2018-06-14T13:10:04.160Z,28.73
2018-06-14T13:15:04.171Z,29.89
2018-06-14T13:20:04.179Z,29.11
2018-06-14T13:25:04.187Z,34.19
2018-06-14T13:30:04.176Z,34.94
2018-06-14T13:35:04.173Z,34.92
2018-06-14T13:40:04.188Z,35.47
2018-06-14T13:45:04.184Z,36.33
2018-06-14T13:50:04.186Z,36.51
2018-06-14T13:55:04.205Z,35.45
2018-06-14T14:00:04.194Z,35.29
2018-06-14T14:05:04.197Z,33.13
2018-06-14T14:10:04.208Z,32.72
2018-06-14T14:15:04.209Z,29.53
2018-06-14T14:20:04.201Z,29.21
2018-06-14T14:25:04.211Z,27.62
2018-06-14T14:30:04.223Z,27.37
2018-06-14T14:35:04.216Z,27.79
2018-06-14T14:40:04.214Z,25.92
2018-06-14T14:45:04.214Z,26.31
2018-06-14T14:50:04.348Z,27.2
2018-06-14T14:55:04.221Z,25.72
2018-06-14T15:00:04.227Z,24.29
2018-06-14T15:05:04.242Z,24.59
2018-06-14T15:10:04.228Z,26.86
2018-06-14T15:15:04.233Z,24.49
2018-06-14T15:20:04.239Z,25.89
2018-06-14T15:25:04.231Z,26.56
2018-06-14T15:30:04.241Z,28.46
2018-06-14T15:35:04.248Z,30.1
2018-06-14T15:40:04.250Z,29.8
2018-06-14T15:45:04.247Z,34.62
2018-06-14T15:50:04.261Z,37.49
2018-06-14T15:55:04.260Z,39.61
2018-06-14T16:00:04.262Z,38.73
2018-06-14T16:05:04.279Z,41.08
2018-06-14T16:10:04.275Z,42.77
2018-06-14T16:15:04.281Z,46.18
2018-06-14T16:20:04.276Z,44.17
2018-06-14T16:25:04.276Z,48.47
2018-06-14T16:30:04.273Z,45.82
2018-06-14T16:35:04.302Z,48.57
2018-06-14T16:40:04.286Z,52.93
2018-06-14T16:45:04.293Z,53.2
2018-06-14T16:50:04.296Z,53.06
2018-06-14T16:55:04.293Z,55.11
2018-06-14T17:00:04.300Z,57.01
2018-06-14T17:05:04.459Z,59.46
2018-06-14T17:10:04.298Z,61.67
2018-06-14T17:15:04.306Z,63.34
2018-06-14T17:20:04.316Z,63.61
2018-06-14T17:25:04.304Z,65.27
2018-06-14T17:30:04.303Z,66.62
2018-06-14T17:35:04.313Z,67.88
2018-06-14T17:40:04.309Z,68.73
2018-06-14T17:45:04.314Z,70.83
2018-06-14T17:50:04.390Z,71.65
2018-06-14T17:55:04.389Z,74.12
2018-06-14T18:00:04.326Z,75.9
2018-06-14T18:05:05.761Z,97.92
2018-06-14T18:10:04.340Z,119
2018-06-14T18:15:04.462Z,119
2018-06-14T18:20:04.337Z,119
2018-06-14T18:25:04.350Z,119
2018-06-14T18:30:04.344Z,119
2018-06-14T18:35:04.347Z,119
2018-06-14T18:40:04.361Z,119
2018-06-14T18:45:04.355Z,119
2018-06-14T18:50:04.355Z,119
2018-06-14T18:55:04.375Z,119
2018-06-14T19:00:04.356Z,119
2018-06-14T19:05:04.358Z,119
2018-06-14T19:10:04.373Z,119
2018-06-14T19:15:04.360Z,119
2018-06-14T19:20:04.361Z,119
2018-06-14T19:25:04.372Z,119
2018-06-14T19:30:04.386Z,119
2018-06-14T19:35:04.390Z,119
2018-06-14T19:40:04.498Z,119
2018-06-14T19:45:04.384Z,119
2018-06-14T19:50:04.396Z,119
2018-06-14T19:55:04.390Z,119
2018-06-14T20:00:04.394Z,119
2018-06-14T20:05:04.383Z,119
2018-06-14T20:10:04.406Z,119
2018-06-14T20:15:04.389Z,119
2018-06-14T20:20:04.398Z,119
2018-06-14T20:25:04.441Z,119
2018-06-14T20:30:04.405Z,119
2018-06-14T20:35:04.409Z,119
2018-06-14T20:40:04.416Z,119
2018-06-14T20:45:04.417Z,119
2018-06-14T20:50:04.417Z,119
2018-06-14T20:55:04.412Z,119
2018-06-14T21:00:03.429Z,119
2018-06-14T21:05:03.541Z,119
2018-06-14T21:10:03.418Z,119
2018-06-14T21:15:03.431Z,119
2018-06-14T21:20:03.442Z,119
2018-06-14T21:25:03.437Z,119
2018-06-14T21:30:03.436Z,119
2018-06-14T21:35:03.450Z,119
2018-06-14T21:40:03.606Z,119
2018-06-14T21:45:03.444Z,119
2018-06-14T21:50:03.471Z,119
2018-06-14T21:55:03.452Z,119
2018-06-14T22:00:03.452Z,119
2018-06-14T22:05:03.463Z,119
2018-06-14T22:10:03.457Z,119
2018-06-14T22:15:03.463Z,119
2018-06-14T22:20:03.465Z,119
2018-06-14T22:25:03.468Z,119
2018-06-14T22:30:03.470Z,119
2018-06-14T22:35:03.471Z,119
2018-06-14T22:40:03.478Z,119
2018-06-14T22:45:03.465Z,119
2018-06-14T22:50:03.480Z,119
2018-06-14T22:55:03.494Z,119
2018-06-14T23:00:03.480Z,119
2018-06-14T23:05:03.477Z,119
2018-06-14T23:10:03.505Z,119
2018-06-14T23:15:03.504Z,119
2018-06-14T23:20:03.497Z,119
2018-06-14T23:25:03.503Z,119
2018-06-14T23:30:03.501Z,119
2018-06-14T23:35:03.503Z,119
2018-06-14T23:40:03.515Z,119
2018-06-14T23:45:03.504Z,119
2018-06-14T23:50:03.507Z,119
2018-06-14T23:55:03.527Z,119
